Time;durP1;ratioP1;P1;durP2;ratioP2;P2;SDS_P1;SDS_P2;PMS_P1;PMS_P2;Temp;Humidity;BMP_temperature;BMP_pressure;BME280_temperature;BME280_humidity;BME280_pressure;Samples;Min_cycle;Max_cycle;Signal;HPM_P1;HPM_P2
2022/09/14 00:02:42;;;;;;;2.75;1.30;;;24.20;99.90;;;;;;1958325;72;22225;-78
2022/09/14 00:05:35;;;;;;;3.20;1.15;;;24.20;99.90;;;;;;1907747;75;21098;-78
2022/09/14 00:11:08;;;;;;;5.08;1.60;;;24.10;99.90;;;;;;1961450;72;22169;-79
2022/09/14 00:14:01;;;;;;;4.90;1.32;;;23.90;99.90;;;;;;1925615;73;21067;-80
2022/09/14 00:16:52;;;;;;;3.55;1.50;;;23.80;99.90;;;;;;1917721;75;21554;-78
2022/09/14 00:19:43;;;;;;;3.80;1.32;;;23.90;99.90;;;;;;1914456;75;21164;-78
2022/09/14 00:22:35;;;;;;;1.50;1.30;;;23.90;99.90;;;;;;1916659;73;21058;-80
2022/09/14 00:25:26;;;;;;;1.47;1.15;;;23.90;99.90;;;;;;1940105;73;21055;-80
2022/09/14 00:30:56;;;;;;;2.58;1.20;;;24.10;99.90;;;;;;1932145;72;22244;-80
2022/09/14 00:33:48;;;;;;;5.83;1.57;;;24.10;99.90;;;;;;1900788;75;21124;-81
2022/09/14 00:36:41;;;;;;;2.12;1.40;;;24.10;99.90;;;;;;1905738;75;21142;-80
2022/09/14 00:39:33;;;;;;;2.02;1.27;;;24.00;99.90;;;;;;1902984;73;21801;-80
2022/09/14 00:42:27;;;;;;;2.90;1.40;;;24.00;99.90;;;;;;1885178;75;21486;-80
2022/09/14 00:45:20;;;;;;;2.50;1.60;;;24.00;99.90;;;;;;1902334;75;21138;-80
2022/09/14 00:48:12;;;;;;;2.95;1.30;;;23.90;99.90;;;;;;1887209;75;21100;-80
2022/09/14 00:51:03;;;;;;;4.75;1.40;;;24.00;99.90;;;;;;1914038;75;21039;-80
2022/09/14 00:53:55;;;;;;;2.50;1.37;;;24.00;99.90;;;;;;1897445;75;21050;-79
2022/09/14 00:56:47;;;;;;;6.20;1.27;;;23.90;99.90;;;;;;1886733;75;21059;-80
2022/09/14 00:59:41;;;;;;;1.80;1.30;;;23.90;99.90;;;;;;1906082;75;21106;-79
2022/09/14 01:02:34;;;;;;;1.92;1.32;;;23.80;99.90;;;;;;1887387;75;21132;-79
2022/09/14 01:08:19;;;;;;;3.92;1.27;;;23.80;99.90;;;;;;1945834;72;22125;-78
2022/09/14 01:11:23;;;;;;;1.70;1.00;;;23.80;99.90;;;;;;1925371;73;21102;-79
2022/09/14 01:14:18;;;;;;;3.87;1.20;;;23.80;99.90;;;;;;1929039;73;21108;-78
2022/09/14 01:17:12;;;;;;;3.00;1.12;;;23.80;99.90;;;;;;1917760;75;21061;-78
2022/09/14 01:20:19;;;;;;;3.08;1.35;;;23.90;99.90;;;;;;1924865;73;21168;-78
2022/09/14 01:26:46;;;;;;;5.12;1.37;;;23.80;99.90;;;;;;1936956;72;22101;-78
2022/09/14 01:29:40;;;;;;;3.42;1.20;;;23.80;99.90;;;;;;1905460;75;21148;-78
2022/09/14 01:32:35;;;;;;;2.52;1.40;;;23.70;99.90;;;;;;1865532;75;21131;-79
2022/09/14 01:35:29;;;;;;;5.08;1.50;;;23.70;99.90;;;;;;1894465;75;21114;-79
2022/09/14 01:41:02;;;;;;;4.00;1.80;;;23.50;99.90;;;;;;1931097;72;22157;-78
2022/09/14 01:43:57;;;;;;;2.27;1.52;;;23.40;99.90;;;;;;1903921;75;21066;-78
2022/09/14 01:46:52;;;;;;;3.42;1.40;;;23.40;99.90;;;;;;1884921;75;21172;-78
2022/09/14 01:49:46;;;;;;;2.80;1.60;;;23.40;99.90;;;;;;1908031;75;21047;-79
2022/09/14 01:55:24;;;;;;;2.60;1.30;;;23.30;99.90;;;;;;1933828;72;22157;-79
2022/09/14 01:58:19;;;;;;;3.83;1.60;;;23.30;99.90;;;;;;1912165;75;21197;-79
2022/09/14 02:03:52;;;;;;;2.40;1.62;;;23.30;99.90;;;;;;1955625;72;22180;-79
2022/09/14 02:06:46;;;;;;;3.83;1.62;;;23.30;99.90;;;;;;1929849;73;21054;-80
2022/09/14 02:09:39;;;;;;;5.62;1.90;;;23.30;99.90;;;;;;1921244;73;21099;-79
2022/09/14 02:12:31;;;;;;;3.70;1.60;;;23.30;99.90;;;;;;1923222;73;21108;-78
2022/09/14 02:15:25;;;;;;;3.50;1.72;;;23.20;99.90;;;;;;1932748;73;21059;-78
2022/09/14 02:20:57;;;;;;;3.02;1.50;;;23.20;99.90;;;;;;1938066;72;22353;-78
2022/09/14 02:23:48;;;;;;;4.78;1.77;;;23.20;99.90;;;;;;1913292;75;21165;-78
2022/09/14 02:26:41;;;;;;;2.77;1.60;;;23.20;99.90;;;;;;1884119;75;21165;-78
2022/09/14 02:29:32;;;;;;;2.95;1.62;;;23.20;99.90;;;;;;1885915;75;21049;-78
2022/09/14 02:32:26;;;;;;;3.92;1.77;;;23.20;99.90;;;;;;1890980;75;21062;-78
2022/09/14 02:35:21;;;;;;;4.37;1.67;;;23.20;99.90;;;;;;1914677;75;21121;-78
2022/09/14 02:38:16;;;;;;;3.50;1.50;;;23.10;99.90;;;;;;1896775;75;21067;-78
2022/09/14 02:41:10;;;;;;;3.60;1.70;;;23.10;99.90;;;;;;1915804;74;21146;-78
2022/09/14 02:46:44;;;;;;;3.60;1.70;;;23.00;99.90;;;;;;1937371;72;22286;-79
2022/09/14 02:49:40;;;;;;;2.95;1.47;;;23.00;99.90;;;;;;1906190;75;21125;-79
2022/09/14 02:52:35;;;;;;;9.63;2.05;;;23.00;99.90;;;;;;1891238;75;21110;-79
2022/09/14 02:55:29;;;;;;;4.28;1.72;;;23.00;99.90;;;;;;1884883;75;21180;-78
2022/09/14 02:58:20;;;;;;;4.22;1.67;;;23.00;99.90;;;;;;1892591;75;21192;-78
2022/09/14 03:01:13;;;;;;;3.20;1.67;;;22.90;99.90;;;;;;1908569;75;21092;-78
2022/09/14 03:06:46;;;;;;;3.62;1.50;;;22.90;99.90;;;;;;1967174;72;22211;-78
2022/09/14 03:09:37;;;;;;;4.60;1.60;;;22.90;99.90;;;;;;1864642;76;21498;-80
2022/09/14 03:12:28;;;;;;;7.42;1.60;;;22.90;99.90;;;;;;1919827;74;21637;-79
2022/09/14 03:15:19;;;;;;;5.45;1.70;;;22.80;99.90;;;;;;1918946;73;21147;-79
2022/09/14 03:20:48;;;;;;;3.95;1.50;;;22.70;99.90;;;;;;1945776;72;22362;-80
2022/09/14 03:23:41;;;;;;;3.80;1.60;;;22.70;99.90;;;;;;1896208;74;21082;-80
2022/09/14 03:26:35;;;;;;;3.75;1.55;;;22.70;99.90;;;;;;1903657;75;21104;-80
2022/09/14 03:32:09;;;;;;;3.40;1.60;;;22.60;99.90;;;;;;1934445;72;22078;-80
2022/09/14 03:35:01;;;;;;;6.30;1.40;;;22.60;99.90;;;;;;1890502;75;21077;-80
2022/09/14 03:37:52;;;;;;;2.50;1.60;;;22.60;99.90;;;;;;1897110;75;21055;-80
2022/09/14 03:40:43;;;;;;;2.83;1.77;;;22.60;99.90;;;;;;1906601;75;21063;-80
2022/09/14 03:43:34;;;;;;;4.78;1.50;;;22.60;99.90;;;;;;1908952;75;21142;-80
2022/09/14 03:46:26;;;;;;;3.27;1.30;;;22.60;99.90;;;;;;1896947;75;21123;-80
2022/09/14 03:51:59;;;;;;;3.05;2.02;;;22.80;99.90;;;;;;1936487;72;22135;-79
2022/09/14 03:54:53;;;;;;;4.83;2.10;;;22.80;99.90;;;;;;1893903;75;21104;-79
2022/09/14 03:57:44;;;;;;;3.80;1.70;;;22.70;99.90;;;;;;1854024;76;21115;-79
2022/09/14 04:00:36;;;;;;;3.20;1.72;;;22.70;99.90;;;;;;1884723;75;21127;-79
2022/09/14 04:06:06;;;;;;;3.05;1.55;;;22.50;99.90;;;;;;1930826;72;22145;-77
2022/09/14 04:08:58;;;;;;;2.72;1.50;;;22.70;99.90;;;;;;1891622;75;21139;-79
2022/09/14 04:11:49;;;;;;;2.52;1.37;;;22.70;99.90;;;;;;1884614;75;21129;-79
2022/09/14 04:14:40;;;;;;;2.22;1.70;;;22.70;99.90;;;;;;1899294;75;21104;-78
2022/09/14 04:17:32;;;;;;;4.65;1.90;;;22.60;99.90;;;;;;1890806;75;21575;-79
2022/09/14 04:20:23;;;;;;;3.27;1.70;;;22.60;99.90;;;;;;1897171;75;21067;-79
2022/09/14 04:25:53;;;;;;;7.12;1.87;;;22.60;99.90;;;;;;1937042;72;22199;-78
2022/09/14 04:28:45;;;;;;;3.42;1.70;;;22.60;99.90;;;;;;1889882;75;21140;-78
2022/09/14 04:31:36;;;;;;;4.47;1.90;;;22.60;99.90;;;;;;1884788;75;21097;-78
2022/09/14 04:37:05;;;;;;;4.40;2.17;;;22.60;99.90;;;;;;1934645;72;22181;-78
2022/09/14 04:39:56;;;;;;;3.17;1.95;;;22.60;99.90;;;;;;1890990;75;21059;-78
2022/09/14 04:42:48;;;;;;;5.00;2.20;;;22.50;99.90;;;;;;1902266;75;21164;-77
2022/09/14 04:45:39;;;;;;;3.77;1.92;;;22.50;99.90;;;;;;1885947;75;21058;-77
2022/09/14 04:48:33;;;;;;;5.22;2.17;;;22.40;99.90;;;;;;1883321;75;21097;-78
2022/09/14 04:51:26;;;;;;;5.28;2.12;;;22.40;99.90;;;;;;1892918;75;21145;-78
2022/09/14 04:54:19;;;;;;;51.77;42.95;;;22.30;99.90;;;;;;1885155;75;21134;-91
2022/09/14 04:57:10;;;;;;;3.77;2.12;;;22.30;99.90;;;;;;1900122;73;21177;-77
2022/09/14 05:00:02;;;;;;;3.17;1.62;;;22.40;99.90;;;;;;1893973;73;21095;-78
2022/09/14 05:02:54;;;;;;;5.17;2.45;;;22.40;99.90;;;;;;1906732;75;21059;-78
2022/09/14 05:05:45;;;;;;;2.67;1.95;;;22.30;99.90;;;;;;1903395;75;21103;-78
2022/09/14 05:11:18;;;;;;;4.62;2.00;;;22.30;99.90;;;;;;1950018;72;22291;-78
2022/09/14 05:14:12;;;;;;;5.00;2.10;;;22.30;99.90;;;;;;1923578;73;21121;-78
2022/09/14 05:17:03;;;;;;;5.45;2.40;;;22.30;99.90;;;;;;1919258;73;21113;-77
2022/09/14 05:19:55;;;;;;;5.35;2.75;;;22.30;99.90;;;;;;1923636;73;21195;-78
2022/09/14 05:22:49;;;;;;;4.28;2.30;;;22.20;99.90;;;;;;1917640;73;21585;-77
2022/09/14 05:25:40;;;;;;;5.15;2.50;;;22.20;99.90;;;;;;1940161;73;21080;-78
2022/09/14 05:31:13;;;;;;;4.40;2.47;;;22.10;99.90;;;;;;1949531;72;22598;-78
2022/09/14 05:34:04;;;;;;;6.58;2.58;;;22.10;99.90;;;;;;1916054;74;21152;-77
2022/09/14 05:36:56;;;;;;;3.25;2.30;;;22.00;99.90;;;;;;1898026;75;21100;-76
2022/09/14 05:39:47;;;;;;;4.72;2.60;;;21.80;99.90;;;;;;1902885;74;21105;-76
2022/09/14 05:42:38;;;;;;;4.53;2.90;;;21.80;99.90;;;;;;1904041;74;21091;-78
2022/09/14 05:45:30;;;;;;;9.90;3.25;;;21.80;99.90;;;;;;1895898;74;21092;-77
2022/09/14 05:48:21;;;;;;;6.10;2.70;;;21.70;99.90;;;;;;1889382;73;21157;-77
2022/09/14 05:51:15;;;;;;;4.75;2.05;;;21.70;99.90;;;;;;1901783;75;21135;-77
2022/09/14 05:54:10;;;;;;;7.70;2.12;;;21.60;99.90;;;;;;1902945;75;21660;-76
2022/09/14 05:57:00;;;;;;;5.95;2.08;;;21.50;99.90;;;;;;1902136;73;21142;-77
2022/09/14 06:02:30;;;;;;;7.12;2.52;;;21.40;99.90;;;;;;1955014;72;22317;-76
2022/09/14 06:05:24;;;;;;;7.40;2.67;;;21.50;99.90;;;;;;1948321;73;21130;-77
2022/09/14 06:10:53;;;;;;;5.45;1.92;;;21.50;99.90;;;;;;1953553;72;22131;-76
2022/09/14 06:13:46;;;;;;;6.40;2.30;;;21.60;99.90;;;;;;1905368;75;21055;-76
2022/09/14 06:16:37;;;;;;;5.50;2.27;;;21.50;99.90;;;;;;1904851;75;21106;-76
2022/09/14 06:19:30;;;;;;;8.80;3.02;;;21.30;99.90;;;;;;1908338;74;21059;-75
2022/09/14 06:22:21;;;;;;;6.92;3.40;;;21.20;99.90;;;;;;1905825;73;21170;-74
2022/09/14 06:25:13;;;;;;;14.25;3.60;;;21.20;99.90;;;;;;1910709;74;21179;-74
2022/09/14 06:30:49;;;;;;;6.45;2.95;;;21.20;99.90;;;;;;1938852;72;22162;-74
2022/09/14 06:33:53;;;;;;;8.40;3.30;;;21.30;99.90;;;;;;1898440;74;21283;-74
2022/09/14 06:36:46;;;;;;;12.63;3.62;;;21.20;99.90;;;;;;1884510;75;21231;-74
2022/09/14 06:42:16;;;;;;;11.00;4.72;;;21.10;99.90;;;;;;1950558;72;22707;-75
2022/09/14 06:45:11;;;;;;;8.30;3.70;;;21.20;99.90;;;;;;1898619;75;21043;-76
2022/09/14 06:50:42;;;;;;;8.43;4.30;;;21.20;99.90;;;;;;1915119;72;22343;-75
2022/09/14 06:56:13;;;;;;;7.83;4.25;;;21.20;99.90;;;;;;1935993;72;22134;-76
2022/09/14 06:59:17;;;;;;;11.12;4.12;;;21.20;99.90;;;;;;1895788;75;21051;-75
2022/09/14 07:02:12;;;;;;;8.10;3.55;;;21.20;99.90;;;;;;1921371;74;21087;-75
2022/09/14 07:05:03;;;;;;;7.00;4.20;;;21.20;99.90;;;;;;1917478;74;21115;-75
2022/09/14 07:07:54;;;;;;;33.83;5.75;;;21.20;99.90;;;;;;1920740;74;21050;-76
2022/09/14 07:10:48;;;;;;;13.72;4.37;;;21.20;99.90;;;;;;1917322;74;21154;-75
2022/09/14 07:16:18;;;;;;;77.92;8.88;;;21.20;99.90;;;;;;1926689;72;22777;-75
2022/09/14 07:19:12;;;;;;;10.75;3.65;;;21.20;99.90;;;;;;1898836;75;21149;-75
2022/09/14 07:22:03;;;;;;;11.60;4.10;;;21.30;99.90;;;;;;1901809;75;21117;-75
2022/09/14 07:24:54;;;;;;;7.60;3.42;;;21.40;99.90;;;;;;1904241;75;21176;-75
2022/09/14 07:27:46;;;;;;;6.60;3.60;;;21.30;99.90;;;;;;1902183;75;21083;-75
2022/09/14 07:30:40;;;;;;;6.97;3.42;;;21.40;99.90;;;;;;1890928;75;21139;-75
2022/09/14 07:36:13;;;;;;;7.60;4.20;;;21.40;99.90;;;;;;1941877;72;22221;-76
2022/09/14 07:41:45;;;;;;;6.62;3.65;;;21.30;99.90;;;;;;1938651;72;22217;-76
2022/09/14 07:44:40;;;;;;;6.78;3.45;;;21.30;99.90;;;;;;1895893;75;21584;-76
2022/09/14 07:47:31;;;;;;;9.85;4.03;;;21.30;99.90;;;;;;1903883;75;21128;-76
2022/09/14 07:50:22;;;;;;;10.40;3.95;;;21.40;99.90;;;;;;1895876;75;21580;-81
2022/09/14 07:53:17;;;;;;;9.80;5.53;;;21.40;99.90;;;;;;1906730;73;21098;-75
2022/09/14 07:56:10;;;;;;;9.58;4.03;;;21.50;99.90;;;;;;1901958;73;21054;-77
2022/09/14 07:59:03;;;;;;;7.85;4.35;;;21.50;99.90;;;;;;1899127;75;21149;-78
2022/09/14 08:01:56;;;;;;;9.85;4.45;;;21.40;99.90;;;;;;1913491;75;21058;-78
2022/09/14 08:04:47;;;;;;;9.78;4.25;;;21.40;99.90;;;;;;1917182;73;21051;-78
2022/09/14 08:10:18;;;;;;;7.90;4.83;;;21.30;99.90;;;;;;1941842;72;22109;-77
2022/09/14 08:13:08;;;;;;;7.62;3.75;;;21.30;99.90;;;;;;1884007;75;21187;-81
2022/09/14 08:16:00;;;;;;;6.42;4.05;;;21.30;99.90;;;;;;1899920;75;21570;-75
2022/09/14 08:18:55;;;;;;;9.25;4.15;;;21.30;99.90;;;;;;1895821;75;21086;-76
2022/09/14 08:21:47;;;;;;;6.90;2.62;;;21.30;99.90;;;;;;1902169;75;21124;-77
2022/09/14 08:24:44;;;;;;;5.00;2.72;;;21.30;99.90;;;;;;1899849;75;21091;-79
2022/09/14 08:27:46;;;;;;;7.58;2.55;;;21.40;99.90;;;;;;1894542;75;21308;-79
2022/09/14 08:30:40;;;;;;;9.93;3.60;;;21.50;99.90;;;;;;1897749;75;21074;-80
2022/09/14 08:33:40;;;;;;;9.20;3.67;;;21.60;99.90;;;;;;1860195;76;21038;-78
2022/09/14 08:36:33;;;;;;;10.05;3.83;;;21.70;99.90;;;;;;1857622;76;21165;-79
2022/09/14 08:42:04;;;;;;;8.10;3.72;;;22.00;99.90;;;;;;1936314;72;22108;-76
2022/09/14 08:44:58;;;;;;;13.53;3.83;;;22.00;99.90;;;;;;1913867;75;21215;-77
2022/09/14 08:47:48;;;;;;;8.85;4.65;;;22.00;99.90;;;;;;1908695;74;21039;-76
2022/09/14 08:50:39;;;;;;;14.05;5.30;;;22.20;99.90;;;;;;1909519;74;21685;-75
2022/09/14 08:53:29;;;;;;;10.00;4.70;;;22.20;99.90;;;;;;1904342;74;21297;-76
2022/09/14 08:56:23;;;;;;;9.33;4.78;;;22.20;99.90;;;;;;1911454;74;21124;-75
2022/09/14 09:02:38;;;;;;;11.65;4.33;;;22.50;99.90;;;;;;1942044;72;22243;-75
2022/09/14 09:05:36;;;;;;;7.67;3.87;;;22.50;99.90;;;;;;1907701;73;21113;-75
2022/09/14 09:11:09;;;;;;;8.98;4.70;;;22.50;99.90;;;;;;1927256;72;22638;-75
2022/09/14 09:14:00;;;;;;;9.23;3.80;;;22.60;99.90;;;;;;1893348;75;21102;-75
2022/09/14 09:19:36;;;;;;;9.10;3.75;;;22.80;99.90;;;;;;1952614;72;22212;-75
2022/09/14 09:22:29;;;;;;;9.93;3.47;;;22.80;99.90;;;;;;1902322;74;21067;-76
2022/09/14 09:28:01;;;;;;;6.33;3.05;;;22.90;99.90;;;;;;1948186;72;22221;-74
2022/09/14 09:30:52;;;;;;;7.35;3.02;;;22.90;99.90;;;;;;1906165;75;21087;-75
2022/09/14 09:33:47;;;;;;;6.92;2.90;;;23.00;99.90;;;;;;1899645;74;21101;-75
2022/09/14 09:36:43;;;;;;;10.00;4.58;;;23.10;99.90;;;;;;1897478;73;21088;-75
2022/09/14 09:39:35;;;;;;;8.38;3.77;;;23.20;99.90;;;;;;1895854;74;21216;-75
2022/09/14 09:42:28;;;;;;;5.33;2.67;;;23.30;99.90;;;;;;1897169;75;21223;-76
2022/09/14 09:45:19;;;;;;;5.67;3.25;;;23.40;99.90;;;;;;1897967;73;21125;-76
2022/09/14 09:48:11;;;;;;;5.50;2.77;;;23.50;99.90;;;;;;1895269;75;21101;-76
2022/09/14 09:51:10;;;;;;;6.15;3.05;;;23.60;99.90;;;;;;1886300;75;21047;-77
2022/09/14 09:56:44;;;;;;;10.80;2.85;;;23.90;99.90;;;;;;1943819;72;22107;-75
2022/09/14 09:59:39;;;;;;;5.97;2.12;;;24.00;99.90;;;;;;1900921;75;21055;-75
2022/09/14 10:02:32;;;;;;;8.95;3.50;;;24.00;99.90;;;;;;1901297;75;21489;-75
2022/09/14 10:05:27;;;;;;;6.40;3.05;;;24.10;99.90;;;;;;1901547;75;21046;-75
2022/09/14 10:08:19;;;;;;;7.83;2.95;;;24.20;99.90;;;;;;1903807;75;21024;-74
2022/09/14 10:11:29;;;;;;;7.10;2.50;;;24.20;99.90;;;;;;1910037;75;21190;-91
2022/09/14 10:17:10;;;;;;;7.25;4.12;;;24.50;99.90;;;;;;1936804;72;22180;-79
2022/09/14 10:20:01;;;;;;;7.92;3.42;;;24.60;99.90;;;;;;1901051;75;21110;-79
2022/09/14 10:22:52;;;;;;;8.85;3.50;;;24.70;99.90;;;;;;1871618;75;21471;-78
2022/09/14 10:25:44;;;;;;;7.10;3.02;;;24.80;99.90;;;;;;1857347;75;21636;-77
2022/09/14 10:28:36;;;;;;;8.48;3.00;;;24.90;99.90;;;;;;1899353;75;21482;-77
2022/09/14 10:34:19;;;;;;;6.00;2.60;;;25.30;99.90;;;;;;1933184;72;22146;-76
2022/09/14 10:37:19;;;;;;;6.62;2.37;;;25.30;99.90;;;;;;1903691;75;21093;-76
2022/09/14 10:40:18;;;;;;;7.25;2.75;;;25.40;99.90;;;;;;1913058;75;21132;-78
2022/09/14 10:45:57;;;;;;;4.53;1.80;;;25.40;99.90;;;;;;1952664;72;22229;-76
2022/09/14 10:48:58;;;;;;;4.95;1.90;;;25.60;99.90;;;;;;1897615;75;21129;-77
2022/09/14 10:51:54;;;;;;;6.08;3.10;;;25.70;99.90;;;;;;1926150;73;21094;-80
2022/09/14 10:54:59;;;;;;;6.53;2.90;;;25.70;99.90;;;;;;1928510;73;21091;-83
2022/09/14 10:57:53;;;;;;;5.80;3.15;;;25.70;99.90;;;;;;1903616;75;21184;-90
2022/09/14 11:00:54;;;;;;;4.08;2.45;;;25.80;99.90;;;;;;1916911;75;21051;-82
2022/09/14 11:09:29;;;;;;;5.20;1.70;;;25.90;99.90;;;;;;1933648;72;22169;-81
2022/09/14 11:12:26;;;;;;;4.20;1.95;;;25.90;99.90;;;;;;1884126;76;21075;-79
2022/09/14 11:15:21;;;;;;;4.45;1.50;;;26.00;99.90;;;;;;1899917;75;21176;-79
2022/09/14 11:18:22;;;;;;;2.80;1.30;;;26.00;99.90;;;;;;1896267;75;21102;-79
2022/09/14 11:21:18;;;;;;;3.02;1.80;;;25.80;99.90;;;;;;1895485;75;21692;-80
2022/09/14 11:24:16;;;;;;;5.95;2.05;;;26.00;99.90;;;;;;1895425;75;21146;-80
2022/09/14 11:27:14;;;;;;;5.35;2.25;;;26.10;99.90;;;;;;1895571;74;21181;-90
2022/09/14 11:30:10;;;;;;;5.53;2.15;;;26.20;99.90;;;;;;1903626;75;21099;-79
2022/09/14 11:33:08;;;;;;;3.60;1.90;;;26.40;99.90;;;;;;1899498;75;21090;-78
2022/09/14 11:36:15;;;;;;;6.00;2.02;;;26.50;99.90;;;;;;1908825;73;21101;-78
2022/09/14 11:39:13;;;;;;;5.03;1.30;;;26.90;99.90;;;;;;1895141;75;21102;-78
2022/09/14 11:42:08;;;;;;;4.17;1.30;;;27.20;99.90;;;;;;1911055;75;21168;-79
2022/09/14 11:45:03;;;;;;;3.35;1.37;;;27.50;99.90;;;;;;1932493;73;21112;-78
2022/09/14 11:48:00;;;;;;;4.67;1.40;;;27.80;99.90;;;;;;1926365;73;21102;-78
2022/09/14 11:50:53;;;;;;;5.65;1.50;;;28.00;99.90;;;;;;1899788;75;21098;-79
2022/09/14 11:53:46;;;;;;;4.90;2.00;;;28.10;99.90;;;;;;1908528;75;21121;-78
2022/09/14 11:56:38;;;;;;;11.00;1.50;;;28.20;99.90;;;;;;1892668;75;21468;-78
2022/09/14 11:59:49;;;;;;;4.65;1.47;;;28.30;99.90;;;;;;1895001;75;21055;-78
2022/09/14 12:02:59;;;;;;;3.60;1.37;;;28.30;99.90;;;;;;1895288;75;21581;-79
2022/09/14 12:05:51;;;;;;;4.42;1.67;;;28.40;99.90;;;;;;1892200;73;21169;-79
2022/09/14 12:08:47;;;;;;;2.83;1.60;;;28.60;99.90;;;;;;1889183;75;21134;-80
2022/09/14 12:11:38;;;;;;;2.30;1.20;;;28.70;99.90;;;;;;1888523;75;21077;-79
2022/09/14 12:14:55;;;;;;;76.05;67.85;;;28.80;99.90;;;;;;1881890;75;21121;-84
2022/09/14 12:18:19;;;;;;;5.65;1.75;;;28.70;99.90;;;;;;1876039;75;21121;-87
2022/09/14 12:21:22;;;;;;;6.20;1.60;;;28.70;99.90;;;;;;1901653;75;21101;-85
2022/09/14 12:24:21;;;;;;;3.12;1.27;;;28.70;99.90;;;;;;1894712;73;21090;-88
2022/09/14 12:27:21;;;;;;;2.72;1.57;;;28.70;99.90;;;;;;1890674;75;21195;-86
2022/09/14 12:33:44;;;;;;;2.52;1.40;;;28.90;99.90;;;;;;1922647;72;22195;-84
2022/09/14 12:40:04;;;;;;;5.35;1.70;;;29.10;99.90;;;;;;1939965;72;22142;-83
2022/09/14 12:43:17;;;;;;;3.47;1.65;;;29.30;99.90;;;;;;1892549;75;21083;-83
2022/09/14 12:49:01;;;;;;;4.20;1.75;;;29.40;99.90;;;;;;1942354;72;22165;-81
2022/09/14 12:51:53;;;;;;;2.77;1.60;;;29.40;99.90;;;;;;1917398;74;21109;-83
2022/09/14 12:54:51;;;;;;;5.25;1.57;;;29.40;99.90;;;;;;1917584;75;21116;-83
2022/09/14 12:57:45;;;;;;;3.37;1.70;;;29.40;99.80;;;;;;1908495;74;21108;-82
2022/09/14 13:00:46;;;;;;;4.90;1.50;;;29.40;99.90;;;;;;1917527;75;21692;-84
2022/09/14 13:03:52;;;;;;;4.33;1.50;;;29.50;99.40;;;;;;1897073;74;21133;-82
2022/09/14 13:06:46;;;;;;;116.75;104.32;;;29.70;99.10;;;;;;1860407;76;21122;-92
2022/09/14 13:09:38;;;;;;;5.72;2.90;;;29.90;98.20;;;;;;1917310;74;21146;-82
2022/09/14 13:12:33;;;;;;;5.42;1.85;;;29.90;98.10;;;;;;1917264;75;21466;-82
2022/09/14 13:15:27;;;;;;;2.92;1.60;;;29.90;97.70;;;;;;1892502;74;21511;-82
2022/09/14 13:18:37;;;;;;;4.00;1.62;;;29.80;98.20;;;;;;1899672;74;21516;-83
2022/09/14 13:21:29;;;;;;;3.47;2.12;;;29.80;97.50;;;;;;1893099;75;21176;-84
2022/09/14 13:24:28;;;;;;;2.87;1.57;;;29.70;97.70;;;;;;1917361;74;21030;-83
2022/09/14 13:27:22;;;;;;;6.25;1.95;;;29.70;97.20;;;;;;1909767;74;21109;-83
2022/09/14 13:30:22;;;;;;;2.58;1.45;;;29.70;97.20;;;;;;1917616;75;21054;-82
2022/09/14 13:33:17;;;;;;;3.80;1.57;;;29.70;96.80;;;;;;1917353;75;21176;-82
2022/09/14 13:36:09;;;;;;;5.22;1.72;;;29.90;96.50;;;;;;1901218;74;21058;-83
2022/09/14 13:39:02;;;;;;;1.72;1.50;;;30.00;96.70;;;;;;1913673;74;21530;-84
2022/09/14 13:41:54;;;;;;;2.90;1.65;;;30.10;96.30;;;;;;1917821;74;21062;-82
2022/09/14 13:44:48;;;;;;;3.25;1.50;;;30.20;96.20;;;;;;1919856;74;21055;-82
2022/09/14 13:47:40;;;;;;;4.20;1.57;;;30.20;96.10;;;;;;1900276;74;21128;-81
2022/09/14 13:50:32;;;;;;;6.87;1.80;;;30.20;95.10;;;;;;1846937;78;21059;-83
2022/09/14 13:53:41;;;;;;;3.67;1.62;;;30.10;95.10;;;;;;1917506;75;21058;-78
2022/09/14 13:56:35;;;;;;;4.22;1.52;;;30.20;94.90;;;;;;1921883;74;21166;-77
2022/09/14 13:59:26;;;;;;;4.17;1.90;;;30.10;95.10;;;;;;1895284;74;21198;-76
2022/09/14 14:02:19;;;;;;;26.70;3.72;;;30.20;94.90;;;;;;1863409;76;21635;-77
2022/09/14 14:05:24;;;;;;;4.90;1.60;;;30.30;94.80;;;;;;1917830;74;21142;-77
2022/09/14 14:08:25;;;;;;;4.50;1.40;;;30.40;94.80;;;;;;1901558;74;21070;-77
2022/09/14 14:11:19;;;;;;;3.75;1.55;;;30.60;94.60;;;;;;1911651;75;21586;-77
2022/09/14 14:14:25;;;;;;;3.60;1.55;;;30.60;94.20;;;;;;1921233;74;21151;-77
2022/09/14 14:17:35;;;;;;;5.45;1.80;;;30.60;93.80;;;;;;1921335;74;21548;-77
2022/09/14 14:20:33;;;;;;;3.95;1.72;;;30.60;93.60;;;;;;1904661;75;21157;-77
2022/09/14 14:23:25;;;;;;;5.62;1.47;;;30.50;93.60;;;;;;1900332;75;21192;-78
2022/09/14 14:26:20;;;;;;;14.43;2.22;;;30.60;93.80;;;;;;1884063;76;21537;-77
2022/09/14 14:29:15;;;;;;;4.28;1.47;;;30.60;93.40;;;;;;1916252;74;21053;-78
2022/09/14 14:34:46;;;;;;;5.10;2.37;;;30.30;93.40;;;;;;1957897;72;22281;-76
2022/09/14 14:37:37;;;;;;;5.15;1.65;;;30.30;93.50;;;;;;1917761;73;21146;-77
2022/09/14 14:40:30;;;;;;;3.47;1.75;;;30.40;93.40;;;;;;1923503;73;21058;-78
2022/09/14 14:43:24;;;;;;;4.03;1.72;;;30.40;93.00;;;;;;1931381;73;21159;-77
2022/09/14 14:48:57;;;;;;;3.62;1.62;;;31.70;92.10;;;;;;1918350;72;22202;-77
2022/09/14 14:51:49;;;;;;;5.05;1.95;;;31.60;91.60;;;;;;1908389;74;21193;-79
2022/09/14 14:54:41;;;;;;;6.10;1.95;;;31.10;92.10;;;;;;1910612;73;21105;-78
2022/09/14 14:57:32;;;;;;;5.00;1.95;;;30.80;92.20;;;;;;1897406;75;21059;-78
2022/09/14 15:00:26;;;;;;;5.78;2.08;;;30.40;92.60;;;;;;1885220;75;21064;-78
2022/09/14 15:03:18;;;;;;;4.35;1.75;;;30.10;92.60;;;;;;1912775;75;21196;-86
2022/09/14 15:06:16;;;;;;;4.62;2.10;;;30.00;93.00;;;;;;1918951;74;21541;-86
2022/09/14 15:09:12;;;;;;;4.05;2.00;;;29.80;93.20;;;;;;1912830;75;21133;-80
2022/09/14 15:12:04;;;;;;;6.53;2.08;;;29.80;93.00;;;;;;1913985;73;21103;-78
2022/09/14 15:14:55;;;;;;;5.03;1.65;;;29.70;93.30;;;;;;1902492;75;21039;-77
2022/09/14 15:17:49;;;;;;;5.97;1.90;;;29.40;93.00;;;;;;1909755;75;21192;-80
2022/09/14 15:20:41;;;;;;;7.30;2.02;;;29.30;93.30;;;;;;1908813;75;21204;-81
2022/09/14 15:23:33;;;;;;;5.05;2.20;;;29.20;93.60;;;;;;1918959;74;21169;-79
2022/09/14 15:29:17;;;;;;;5.62;2.85;;;29.20;94.60;;;;;;1935859;72;22142;-79
2022/09/14 15:32:07;;;;;;;6.90;2.75;;;29.10;95.10;;;;;;1900127;75;21074;-79
2022/09/14 15:34:59;;;;;;;5.97;1.98;;;29.00;95.00;;;;;;1909586;73;21102;-75
2022/09/14 15:37:50;;;;;;;5.45;2.37;;;28.90;94.50;;;;;;1904325;75;21711;-75
2022/09/14 15:40:41;;;;;;;4.62;3.02;;;28.90;95.70;;;;;;1893328;75;21094;-75
2022/09/14 15:43:34;;;;;;;5.53;1.92;;;28.90;96.10;;;;;;1896031;75;21128;-74
2022/09/14 15:46:25;;;;;;;6.53;2.47;;;28.70;95.70;;;;;;1890991;75;21184;-75
2022/09/14 15:49:21;;;;;;;6.05;2.08;;;28.90;96.10;;;;;;1892797;75;21671;-77
2022/09/14 15:52:13;;;;;;;38.65;32.90;;;29.60;95.60;;;;;;1904681;75;21112;-75
2022/09/14 15:55:07;;;;;;;16.02;11.83;;;29.40;95.30;;;;;;1909482;75;21054;-76
2022/09/14 15:57:59;;;;;;;5.85;2.20;;;29.30;95.80;;;;;;1904753;75;21136;-76
2022/09/14 16:03:30;;;;;;;7.80;2.42;;;29.30;94.80;;;;;;1941580;72;22182;-77
2022/09/14 16:09:03;;;;;;;5.45;2.40;;;29.30;94.30;;;;;;1941378;72;22114;-81
2022/09/14 16:11:55;;;;;;;6.47;2.27;;;29.40;93.90;;;;;;1912875;75;21102;-81
2022/09/14 16:14:48;;;;;;;3.83;1.80;;;29.40;93.60;;;;;;1910504;74;21483;-81
2022/09/14 16:20:19;;;;;;;4.30;2.20;;;29.00;93.00;;;;;;1930913;72;22487;-81
2022/09/14 16:23:10;;;;;;;6.08;2.20;;;28.80;93.60;;;;;;1911160;75;21210;-81
2022/09/14 16:26:06;;;;;;;4.12;1.75;;;28.60;93.40;;;;;;1909125;75;21123;-81
2022/09/14 16:31:43;;;;;;;5.47;2.00;;;28.40;93.70;;;;;;1940068;72;22209;-81
2022/09/14 16:34:36;;;;;;;4.30;1.80;;;28.20;93.90;;;;;;1898369;75;21047;-81
2022/09/14 16:37:28;;;;;;;6.55;2.22;;;28.10;94.20;;;;;;1904632;73;21086;-81
2022/09/14 16:40:20;;;;;;;7.95;3.08;;;28.10;94.70;;;;;;1907406;75;21047;-82
2022/09/14 16:46:34;;;;;;;6.80;2.45;;;27.90;95.10;;;;;;1975317;71;22209;-79
2022/09/14 16:49:38;;;;;;;6.53;2.62;;;27.80;95.20;;;;;;1935607;73;21034;-79
2022/09/14 16:52:30;;;;;;;13.38;7.17;;;27.70;95.40;;;;;;2015544;70;21156;-79
2022/09/14 16:55:21;;;;;;;7.55;3.30;;;27.70;96.00;;;;;;2008187;70;21127;-78
2022/09/14 16:58:13;;;;;;;7.33;2.77;;;27.60;95.90;;;;;;2007308;70;21444;-78
2022/09/14 17:03:49;;;;;;;7.62;2.47;;;27.40;96.20;;;;;;1947185;72;22193;-78
2022/09/14 17:06:42;;;;;;;6.92;2.20;;;27.40;96.60;;;;;;1930635;73;21124;-81
2022/09/14 17:09:34;;;;;;;7.78;2.47;;;27.30;96.60;;;;;;1930045;73;21477;-80
2022/09/14 17:12:27;;;;;;;5.75;2.08;;;27.30;97.00;;;;;;1921804;73;21056;-75
2022/09/14 17:15:19;;;;;;;7.58;2.60;;;27.20;96.80;;;;;;1917365;73;21170;-76
2022/09/14 17:18:10;;;;;;;6.05;2.17;;;27.10;97.30;;;;;;1927264;73;21483;-76
2022/09/14 17:21:04;;;;;;;6.37;2.60;;;27.10;97.00;;;;;;1935179;73;21077;-82
2022/09/14 17:23:54;;;;;;;6.22;2.60;;;27.10;97.20;;;;;;1935722;73;21633;-79
2022/09/14 17:29:39;;;;;;;7.37;3.47;;;27.10;97.70;;;;;;1944214;72;22141;-78